Time;durP1;ratioP1;P1;durP2;ratioP2;P2;SDS_P1;SDS_P2;PMS_P1;PMS_P2;Temp;Humidity;BMP_temperature;BMP_pressure;BME280_temperature;BME280_humidity;BME280_pressure;Samples;Min_cycle;Max_cycle;Signal;HPM_P1;HPM_P2
2021/07/12 00:01:46;;;;;;;;;;;;;;;;;;5114333;27;19922;-68
2021/07/12 00:04:12;;;;;;;;;;;;;;;;;;5115841;27;20436;-68
2021/07/12 00:06:38;;;;;;;;;;;;;;;;;;5117037;27;19908;-68
2021/07/12 00:09:04;;;;;;;;;;;;;;;;;;5118932;27;19907;-68
2021/07/12 00:11:30;;;;;;;;;;;;;;;;;;5116959;27;19980;-68
2021/07/12 00:13:56;;;;;;;;;;;;;;;;;;5117405;27;19919;-68
2021/07/12 00:16:21;;;;;;;;;;;;;;;;;;5098073;27;19911;-68
2021/07/12 00:18:47;;;;;;;;;;;;;;;;;;5113917;27;19919;-68
2021/07/12 00:21:13;;;;;;;;;;;;;;;;;;5119822;27;19957;-68
2021/07/12 00:23:39;;;;;;;;;;;;;;;;;;5117542;27;19939;-68
2021/07/12 00:26:05;;;;;;;;;;;;;;;;;;5117519;27;19919;-68
2021/07/12 00:28:31;;;;;;;;;;;;;;;;;;5117287;27;19918;-68
2021/07/12 00:30:57;;;;;;;;;;;;;;;;;;5094377;27;19912;-68
2021/07/12 00:33:23;;;;;;;;;;;;;;;;;;5119749;27;19920;-68
2021/07/12 00:35:48;;;;;;;;;;;;;;;;;;5118601;27;19981;-68
2021/07/12 00:38:14;;;;;;;;;;;;;;;;;;5117030;27;20351;-68
2021/07/12 00:40:40;;;;;;;;;;;;;;;;;;5116499;27;19911;-68
2021/07/12 00:43:06;;;;;;;;;;;;;;;;;;5114123;27;20264;-68
2021/07/12 00:45:32;;;;;;;;;;;;;;;;;;5098808;28;19912;-68
2021/07/12 00:47:58;;;;;;;;;;;;;;;;;;5117902;27;19918;-68
2021/07/12 00:50:24;;;;;;;;;;;;;;;;;;5116185;27;19953;-68
2021/07/12 00:52:50;;;;;;;;;;;;;;;;;;5116441;27;19931;-70
2021/07/12 00:55:16;;;;;;;;;;;;;;;;;;5115115;27;19908;-67
2021/07/12 00:57:42;;;;;;;;;;;;;;;;;;5114084;27;19916;-70
2021/07/12 01:00:08;;;;;;;;;;;;;;;;;;5117965;27;19912;-67
2021/07/12 01:02:33;;;;;;;;;;;;;;;;;;5116171;27;19914;-70
2021/07/12 01:04:59;;;;;;;;;;;;;;;;;;5116955;27;19916;-70
2021/07/12 01:07:25;;;;;;;;;;;;;;;;;;5116300;27;19911;-69
2021/07/12 01:09:51;;;;;;;;;;;;;;;;;;5095265;28;20011;-70
2021/07/12 01:12:19;;;;;;;;;;;;;;;;;;5118685;27;19943;-70
2021/07/12 01:14:44;;;;;;;;;;;;;;;;;;5114886;27;19911;-70
2021/07/12 01:17:11;;;;;;;;;;;;;;;;;;5116130;27;19911;-69
2021/07/12 01:19:37;;;;;;;;;;;;;;;;;;5116114;27;19912;-67
2021/07/12 01:22:02;;;;;;;;;;;;;;;;;;5112524;27;19919;-69
2021/07/12 01:24:28;;;;;;;;;;;;;;;;;;5117435;27;19942;-69
2021/07/12 01:26:54;;;;;;;;;;;;;;;;;;5119396;27;19929;-70
2021/07/12 01:29:20;;;;;;;;;;;;;;;;;;5115927;27;19912;-69
2021/07/12 01:31:46;;;;;;;;;;;;;;;;;;5115766;27;19920;-70
2021/07/12 01:34:12;;;;;;;;;;;;;;;;;;5113965;27;20379;-69
2021/07/12 01:36:38;;;;;;;;;;;;;;;;;;5114984;27;19951;-70
2021/07/12 01:39:04;;;;;;;;;;;;;;;;;;5117559;27;20387;-70
2021/07/12 01:41:29;;;;;;;;;;;;;;;;;;5115940;27;19916;-70
2021/07/12 01:43:55;;;;;;;;;;;;;;;;;;5115690;27;19916;-69
2021/07/12 01:46:21;;;;;;;;;;;;;;;;;;5115199;27;19964;-69
2021/07/12 01:48:48;;;;;;;;;;;;;;;;;;5112222;28;19972;-69
2021/07/12 01:51:14;;;;;;;;;;;;;;;;;;5118625;27;19908;-69
2021/07/12 01:53:40;;;;;;;;;;;;;;;;;;5115541;27;20028;-69
2021/07/12 01:56:05;;;;;;;;;;;;;;;;;;5115345;27;20375;-69
2021/07/12 01:58:31;;;;;;;;;;;;;;;;;;5114915;27;19915;-69
2021/07/12 02:00:57;;;;;;;;;;;;;;;;;;5111207;27;20679;-69
2021/07/12 02:03:23;;;;;;;;;;;;;;;;;;5118134;27;20320;-69
2021/07/12 02:05:49;;;;;;;;;;;;;;;;;;5115845;27;20373;-69
2021/07/12 02:08:15;;;;;;;;;;;;;;;;;;5115372;27;19915;-70
2021/07/12 02:10:41;;;;;;;;;;;;;;;;;;5114544;27;20006;-69
2021/07/12 02:13:07;;;;;;;;;;;;;;;;;;5112262;27;19924;-70
2021/07/12 02:15:34;;;;;;;;;;;;;;;;;;5115420;27;20190;-69
2021/07/12 02:18:00;;;;;;;;;;;;;;;;;;5115752;27;19959;-69
2021/07/12 02:20:26;;;;;;;;;;;;;;;;;;5115372;27;19959;-70
2021/07/12 02:22:52;;;;;;;;;;;;;;;;;;5114963;27;20366;-69
2021/07/12 02:25:17;;;;;;;;;;;;;;;;;;5113328;27;19911;-69
2021/07/12 02:27:43;;;;;;;;;;;;;;;;;;5112836;27;20855;-69
2021/07/12 02:30:09;;;;;;;;;;;;;;;;;;5116479;27;19918;-69
2021/07/12 02:32:35;;;;;;;;;;;;;;;;;;5114926;27;19920;-69
2021/07/12 02:35:01;;;;;;;;;;;;;;;;;;5114764;27;19911;-69
2021/07/12 02:37:27;;;;;;;;;;;;;;;;;;5114249;27;19918;-67
2021/07/12 02:39:53;;;;;;;;;;;;;;;;;;5109972;28;19912;-69
2021/07/12 02:42:19;;;;;;;;;;;;;;;;;;5100004;28;19908;-69
2021/07/12 02:44:44;;;;;;;;;;;;;;;;;;5114433;27;19912;-69
2021/07/12 02:47:10;;;;;;;;;;;;;;;;;;5114445;27;19965;-69
2021/07/12 02:49:36;;;;;;;;;;;;;;;;;;5113805;27;19954;-69
2021/07/12 02:52:02;;;;;;;;;;;;;;;;;;5111206;27;19995;-69
2021/07/12 02:54:28;;;;;;;;;;;;;;;;;;5115560;27;19949;-69
2021/07/12 02:56:54;;;;;;;;;;;;;;;;;;5115363;27;20371;-69
2021/07/12 02:59:20;;;;;;;;;;;;;;;;;;5114543;27;19962;-69
2021/07/12 03:01:46;;;;;;;;;;;;;;;;;;5114152;27;20010;-69
2021/07/12 03:04:12;;;;;;;;;;;;;;;;;;5094292;27;19919;-69
2021/07/12 03:06:38;;;;;;;;;;;;;;;;;;5113878;27;19952;-69
2021/07/12 03:09:04;;;;;;;;;;;;;;;;;;5115016;27;20307;-69
2021/07/12 03:11:30;;;;;;;;;;;;;;;;;;5113499;27;20336;-69
2021/07/12 03:13:56;;;;;;;;;;;;;;;;;;5114138;27;19920;-69
2021/07/12 03:16:23;;;;;;;;;;;;;;;;;;5112569;27;20423;-69
2021/07/12 03:18:49;;;;;;;;;;;;;;;;;;5110464;28;20417;-69
2021/07/12 03:21:15;;;;;;;;;;;;;;;;;;5116569;27;20003;-69
2021/07/12 03:23:41;;;;;;;;;;;;;;;;;;5113865;27;19987;-69
2021/07/12 03:26:07;;;;;;;;;;;;;;;;;;5113962;27;19922;-69
2021/07/12 03:28:33;;;;;;;;;;;;;;;;;;5113500;27;19922;-69
2021/07/12 03:30:59;;;;;;;;;;;;;;;;;;5109987;28;20488;-69
2021/07/12 03:33:24;;;;;;;;;;;;;;;;;;5115630;27;19920;-69
2021/07/12 03:35:50;;;;;;;;;;;;;;;;;;5113654;28;19915;-69
2021/07/12 03:38:16;;;;;;;;;;;;;;;;;;5113651;28;19912;-69
2021/07/12 03:40:42;;;;;;;;;;;;;;;;;;5113577;28;20274;-69
2021/07/12 03:43:08;;;;;;;;;;;;;;;;;;5111130;28;19912;-69
2021/07/12 03:45:34;;;;;;;;;;;;;;;;;;5113483;28;19908;-69
2021/07/12 03:48:00;;;;;;;;;;;;;;;;;;5114643;28;20290;-69
2021/07/12 03:50:28;;;;;;;;;;;;;;;;;;5094977;28;20023;-69
2021/07/12 03:52:54;;;;;;;;;;;;;;;;;;5112987;28;20370;-68
2021/07/12 03:55:23;;;;;;;;;;;;;;;;;;5112976;28;20004;-61
2021/07/12 03:57:49;;;;;;;;;;;;;;;;;;5091203;28;19912;-61
2021/07/12 04:00:14;;;;;;;;;;;;;;;;;;5116608;28;20248;-61
2021/07/12 04:02:40;;;;;;;;;;;;;;;;;;5112959;28;19912;-61
2021/07/12 04:05:06;;;;;;;;;;;;;;;;;;5113600;28;19911;-61
2021/07/12 04:07:32;;;;;;;;;;;;;;;;;;5119650;28;19912;-59
2021/07/12 04:09:58;;;;;;;;;;;;;;;;;;5119444;28;20003;-58
2021/07/12 04:12:24;;;;;;;;;;;;;;;;;;5124517;28;19968;-59
2021/07/12 04:14:50;;;;;;;;;;;;;;;;;;5123862;28;19935;-59
2021/07/12 04:17:16;;;;;;;;;;;;;;;;;;5125042;28;19915;-59
2021/07/12 04:19:42;;;;;;;;;;;;;;;;;;5122776;28;19915;-59
2021/07/12 04:22:07;;;;;;;;;;;;;;;;;;5109897;28;19912;-59
2021/07/12 04:24:33;;;;;;;;;;;;;;;;;;5113776;28;19966;-60
2021/07/12 04:26:59;;;;;;;;;;;;;;;;;;5113562;28;19926;-60
2021/07/12 04:29:25;;;;;;;;;;;;;;;;;;5112433;28;19923;-60
2021/07/12 04:31:51;;;;;;;;;;;;;;;;;;5094688;28;20016;-60
2021/07/12 04:34:17;;;;;;;;;;;;;;;;;;5111324;28;19926;-61
2021/07/12 04:36:43;;;;;;;;;;;;;;;;;;5111087;28;25874;-60
2021/07/12 04:39:09;;;;;;;;;;;;;;;;;;5114395;28;19908;-60
2021/07/12 04:41:34;;;;;;;;;;;;;;;;;;5113017;28;19915;-61
2021/07/12 04:44:00;;;;;;;;;;;;;;;;;;5113277;28;19955;-60
2021/07/12 04:46:26;;;;;;;;;;;;;;;;;;5113304;28;19912;-60
2021/07/12 04:48:52;;;;;;;;;;;;;;;;;;5111272;28;19966;-60
2021/07/12 04:51:18;;;;;;;;;;;;;;;;;;5120143;27;19912;-60
2021/07/12 04:53:44;;;;;;;;;;;;;;;;;;5117089;27;19920;-61
2021/07/12 04:56:10;;;;;;;;;;;;;;;;;;5118061;27;19974;-61
2021/07/12 04:58:42;;;;;;;;;;;;;;;;;;5116758;27;19911;-60
2021/07/12 05:01:08;;;;;;;;;;;;;;;;;;5114035;27;20318;-60
2021/07/12 05:03:34;;;;;;;;;;;;;;;;;;5117034;27;19908;-60
2021/07/12 05:05:59;;;;;;;;;;;;;;;;;;5117390;27;19923;-60
2021/07/12 05:08:25;;;;;;;;;;;;;;;;;;5116073;27;19927;-60
2021/07/12 05:10:51;;;;;;;;;;;;;;;;;;5097902;28;20067;-60
2021/07/12 05:13:17;;;;;;;;;;;;;;;;;;5114925;27;19919;-60
2021/07/12 05:15:43;;;;;;;;;;;;;;;;;;5113987;27;25959;-61
2021/07/12 05:18:09;;;;;;;;;;;;;;;;;;5118913;27;19908;-60
2021/07/12 05:20:35;;;;;;;;;;;;;;;;;;5115842;27;19912;-60
2021/07/12 05:23:01;;;;;;;;;;;;;;;;;;5115928;27;19918;-61
2021/07/12 05:25:27;;;;;;;;;;;;;;;;;;5116209;27;19974;-60
2021/07/12 05:27:53;;;;;;;;;;;;;;;;;;5093371;28;19953;-60
2021/07/12 05:30:19;;;;;;;;;;;;;;;;;;5119247;27;19916;-61
2021/07/12 05:32:45;;;;;;;;;;;;;;;;;;5116275;27;19919;-61
2021/07/12 05:35:10;;;;;;;;;;;;;;;;;;5116195;27;19950;-61
2021/07/12 05:37:37;;;;;;;;;;;;;;;;;;5116242;27;20270;-60
2021/07/12 05:40:03;;;;;;;;;;;;;;;;;;5094001;27;20329;-60
2021/07/12 05:42:29;;;;;;;;;;;;;;;;;;5116614;27;19911;-60
2021/07/12 05:44:55;;;;;;;;;;;;;;;;;;5116907;27;19915;-60
2021/07/12 05:47:21;;;;;;;;;;;;;;;;;;5115915;27;19951;-60
2021/07/12 05:49:47;;;;;;;;;;;;;;;;;;5115048;27;19920;-60
2021/07/12 05:52:13;;;;;;;;;;;;;;;;;;5113670;27;20359;-61
2021/07/12 05:54:38;;;;;;;;;;;;;;;;;;5115269;27;19912;-61
2021/07/12 05:57:04;;;;;;;;;;;;;;;;;;5100336;28;19908;-61
2021/07/12 05:59:30;;;;;;;;;;;;;;;;;;5114794;27;19912;-60
2021/07/12 06:01:56;;;;;;;;;;;;;;;;;;5097163;28;20060;-60
2021/07/12 06:04:22;;;;;;;;;;;;;;;;;;5114230;27;19919;-61
2021/07/12 06:06:48;;;;;;;;;;;;;;;;;;5111966;27;20298;-59
2021/07/12 06:09:14;;;;;;;;;;;;;;;;;;5118218;27;19943;-59
2021/07/12 06:11:39;;;;;;;;;;;;;;;;;;5115123;27;19927;-59
2021/07/12 06:14:05;;;;;;;;;;;;;;;;;;5115462;27;19930;-59
2021/07/12 06:16:31;;;;;;;;;;;;;;;;;;5115162;27;19972;-59
2021/07/12 06:18:57;;;;;;;;;;;;;;;;;;5110800;27;20591;-59
2021/07/12 06:21:23;;;;;;;;;;;;;;;;;;5117820;27;19908;-60
2021/07/12 06:23:49;;;;;;;;;;;;;;;;;;5116882;27;19915;-60
2021/07/12 06:26:15;;;;;;;;;;;;;;;;;;5113622;27;20267;-60
2021/07/12 06:28:41;;;;;;;;;;;;;;;;;;5112993;27;19911;-60
2021/07/12 06:31:07;;;;;;;;;;;;;;;;;;5110369;27;20309;-60
2021/07/12 06:33:32;;;;;;;;;;;;;;;;;;5112878;27;19916;-60
2021/07/12 06:35:58;;;;;;;;;;;;;;;;;;5113727;27;20392;-60
2021/07/12 06:38:24;;;;;;;;;;;;;;;;;;5112959;27;20005;-60
2021/07/12 06:40:50;;;;;;;;;;;;;;;;;;5113135;27;20319;-60
2021/07/12 06:43:16;;;;;;;;;;;;;;;;;;5112362;27;19922;-60
2021/07/12 06:45:43;;;;;;;;;;;;;;;;;;5094769;28;19907;-60
2021/07/12 06:48:09;;;;;;;;;;;;;;;;;;5116139;27;19988;-60
2021/07/12 06:50:34;;;;;;;;;;;;;;;;;;5114594;27;19955;-60
2021/07/12 06:53:01;;;;;;;;;;;;;;;;;;5114448;27;19927;-60
2021/07/12 06:55:27;;;;;;;;;;;;;;;;;;5114024;27;19919;-60
2021/07/12 06:57:53;;;;;;;;;;;;;;;;;;5110214;28;19911;-60
2021/07/12 07:00:19;;;;;;;;;;;;;;;;;;5117887;27;19907;-60
2021/07/12 07:02:45;;;;;;;;;;;;;;;;;;5114152;27;20375;-59
2021/07/12 07:05:11;;;;;;;;;;;;;;;;;;5114348;27;19923;-59
2021/07/12 07:07:36;;;;;;;;;;;;;;;;;;5113569;27;19943;-59
2021/07/12 07:10:02;;;;;;;;;;;;;;;;;;5110843;28;19912;-59
2021/07/12 07:12:28;;;;;;;;;;;;;;;;;;5115774;27;20536;-59
2021/07/12 07:14:54;;;;;;;;;;;;;;;;;;5114505;27;19912;-59
2021/07/12 07:17:20;;;;;;;;;;;;;;;;;;5113849;27;19963;-59
2021/07/12 07:19:46;;;;;;;;;;;;;;;;;;5113758;27;20370;-60
2021/07/12 07:22:12;;;;;;;;;;;;;;;;;;5112080;27;19912;-60
2021/07/12 07:24:38;;;;;;;;;;;;;;;;;;5113834;27;19966;-60
2021/07/12 07:27:04;;;;;;;;;;;;;;;;;;5093267;28;19909;-59
2021/07/12 07:29:29;;;;;;;;;;;;;;;;;;5111475;28;19916;-59
2021/07/12 07:31:55;;;;;;;;;;;;;;;;;;5114295;27;20290;-59
2021/07/12 07:34:21;;;;;;;;;;;;;;;;;;5113279;28;19996;-59
2021/07/12 07:36:47;;;;;;;;;;;;;;;;;;5110734;28;20268;-60
2021/07/12 07:39:13;;;;;;;;;;;;;;;;;;5116515;27;19969;-60
2021/07/12 07:41:40;;;;;;;;;;;;;;;;;;5113723;28;19918;-59
2021/07/12 07:44:06;;;;;;;;;;;;;;;;;;5113744;28;19916;-59
2021/07/12 07:46:31;;;;;;;;;;;;;;;;;;5113344;28;19965;-60
2021/07/12 07:48:57;;;;;;;;;;;;;;;;;;5109445;28;20441;-60
2021/07/12 07:51:23;;;;;;;;;;;;;;;;;;5116727;28;19915;-59
2021/07/12 07:53:49;;;;;;;;;;;;;;;;;;5115482;28;19970;-59
2021/07/12 07:56:15;;;;;;;;;;;;;;;;;;5113241;28;19965;-59
2021/07/12 07:58:41;;;;;;;;;;;;;;;;;;5113525;28;19938;-60
2021/07/12 08:01:07;;;;;;;;;;;;;;;;;;5110689;28;19919;-60
2021/07/12 08:03:33;;;;;;;;;;;;;;;;;;5114054;28;20268;-60
2021/07/12 08:05:59;;;;;;;;;;;;;;;;;;5114063;28;19912;-60
2021/07/12 08:08:24;;;;;;;;;;;;;;;;;;5113576;28;19919;-60
2021/07/12 08:10:50;;;;;;;;;;;;;;;;;;5114372;28;19951;-60
2021/07/12 08:13:16;;;;;;;;;;;;;;;;;;5112889;28;19923;-60
2021/07/12 08:15:42;;;;;;;;;;;;;;;;;;5111992;28;19907;-59
2021/07/12 08:18:09;;;;;;;;;;;;;;;;;;5115471;28;19908;-59
2021/07/12 08:20:35;;;;;;;;;;;;;;;;;;5112826;28;19912;-60
2021/07/12 08:23:01;;;;;;;;;;;;;;;;;;5115008;27;19911;-60
2021/07/12 08:25:27;;;;;;;;;;;;;;;;;;5117179;27;20313;-59
2021/07/12 08:27:53;;;;;;;;;;;;;;;;;;5112861;28;19912;-59
2021/07/12 08:30:19;;;;;;;;;;;;;;;;;;5120621;27;19909;-60
2021/07/12 08:32:45;;;;;;;;;;;;;;;;;;5116792;27;19920;-60
2021/07/12 08:35:11;;;;;;;;;;;;;;;;;;5116675;27;20422;-59
2021/07/12 08:37:36;;;;;;;;;;;;;;;;;;5117144;27;19918;-59
2021/07/12 08:40:02;;;;;;;;;;;;;;;;;;5113796;27;20007;-60
2021/07/12 08:42:28;;;;;;;;;;;;;;;;;;5118256;27;20271;-59
2021/07/12 08:44:54;;;;;;;;;;;;;;;;;;5117390;27;19912;-59
2021/07/12 08:47:20;;;;;;;;;;;;;;;;;;5116552;27;19920;-59
2021/07/12 08:49:47;;;;;;;;;;;;;;;;;;5117003;27;20313;-59
2021/07/12 08:52:12;;;;;;;;;;;;;;;;;;5115192;27;19912;-59
2021/07/12 08:54:39;;;;;;;;;;;;;;;;;;5116440;27;20286;-59
2021/07/12 08:57:05;;;;;;;;;;;;;;;;;;5117552;27;19907;-59
2021/07/12 08:59:30;;;;;;;;;;;;;;;;;;5116722;27;20431;-60
2021/07/12 09:01:56;;;;;;;;;;;;;;;;;;5116617;27;19912;-59
2021/07/12 09:04:22;;;;;;;;;;;;;;;;;;5116204;27;20248;-59
2021/07/12 09:06:48;;;;;;;;;;;;;;;;;;5113088;27;19952;-59
2021/07/12 09:09:14;;;;;;;;;;;;;;;;;;5119123;27;19908;-60
2021/07/12 09:11:40;;;;;;;;;;;;;;;;;;5115661;27;19928;-59
2021/07/12 09:14:07;;;;;;;;;;;;;;;;;;5116307;27;19924;-59
2021/07/12 09:16:33;;;;;;;;;;;;;;;;;;5116362;27;19964;-60
2021/07/12 09:18:59;;;;;;;;;;;;;;;;;;5112114;27;19920;-60
2021/07/12 09:21:25;;;;;;;;;;;;;;;;;;5118708;27;20363;-60
2021/07/12 09:23:51;;;;;;;;;;;;;;;;;;5116533;27;19947;-63
2021/07/12 09:26:16;;;;;;;;;;;;;;;;;;5110030;27;19912;-60
2021/07/12 09:28:45;;;;;;;;;;;;;;;;;;5114658;27;19912;-61
2021/07/12 09:31:11;;;;;;;;;;;;;;;;;;5111384;27;19965;-61
2021/07/12 09:33:37;;;;;;;;;;;;;;;;;;5113787;27;19916;-61
2021/07/12 09:36:03;;;;;;;;;;;;;;;;;;5123584;27;19907;-61
2021/07/12 09:38:28;;;;;;;;;;;;;;;;;;5115063;27;20010;-60
2021/07/12 09:40:54;;;;;;;;;;;;;;;;;;5114401;27;19919;-60
2021/07/12 09:43:20;;;;;;;;;;;;;;;;;;5113766;27;20314;-60
2021/07/12 09:45:47;;;;;;;;;;;;;;;;;;5092584;28;19919;-61
2021/07/12 09:48:15;;;;;;;;;;;;;;;;;;5104226;27;19918;-61
2021/07/12 09:50:41;;;;;;;;;;;;;;;;;;5114035;27;19911;-61
2021/07/12 09:53:07;;;;;;;;;;;;;;;;;;5113812;27;20076;-61
2021/07/12 09:55:34;;;;;;;;;;;;;;;;;;5113399;27;19919;-61
2021/07/12 09:58:00;;;;;;;;;;;;;;;;;;5110049;27;19999;-61
2021/07/12 10:00:26;;;;;;;;;;;;;;;;;;5113068;27;19939;-61
2021/07/12 10:02:52;;;;;;;;;;;;;;;;;;5103238;27;20002;-61
2021/07/12 10:05:18;;;;;;;;;;;;;;;;;;5097803;27;19911;-61
2021/07/12 10:07:44;;;;;;;;;;;;;;;;;;5122455;27;19912;-61
2021/07/12 10:10:13;;;;;;;;;;;;;;;;;;5111629;27;20015;-61
2021/07/12 10:12:39;;;;;;;;;;;;;;;;;;5101714;28;19943;-61
2021/07/12 10:15:05;;;;;;;;;;;;;;;;;;5114937;27;19907;-61
2021/07/12 10:17:31;;;;;;;;;;;;;;;;;;5122924;27;20374;-60
2021/07/12 10:19:57;;;;;;;;;;;;;;;;;;5122968;27;19911;-60
2021/07/12 10:22:24;;;;;;;;;;;;;;;;;;5122466;27;20460;-60
2021/07/12 10:24:50;;;;;;;;;;;;;;;;;;5121948;27;19999;-61
2021/07/12 10:27:16;;;;;;;;;;;;;;;;;;5126881;27;19958;-60
2021/07/12 10:29:41;;;;;;;;;;;;;;;;;;5123631;27;19955;-60
2021/07/12 10:32:07;;;;;;;;;;;;;;;;;;5122763;27;19956;-60
2021/07/12 10:34:35;;;;;;;;;;;;;;;;;;5124212;27;19923;-60
2021/07/12 10:37:01;;;;;;;;;;;;;;;;;;5114993;27;19912;-60
2021/07/12 10:39:27;;;;;;;;;;;;;;;;;;5113324;27;19923;-61
2021/07/12 10:41:53;;;;;;;;;;;;;;;;;;5112532;28;19911;-61
2021/07/12 10:44:19;;;;;;;;;;;;;;;;;;5111787;27;20268;-61
2021/07/12 10:46:46;;;;;;;;;;;;;;;;;;5111663;28;19919;-61
2021/07/12 10:49:12;;;;;;;;;;;;;;;;;;5111413;28;19995;-60
2021/07/12 10:51:38;;;;;;;;;;;;;;;;;;5111699;28;19953;-60
2021/07/12 10:54:04;;;;;;;;;;;;;;;;;;5112764;28;20379;-61
2021/07/12 10:56:30;;;;;;;;;;;;;;;;;;5111767;28;19916;-61
2021/07/12 10:58:56;;;;;;;;;;;;;;;;;;5112291;27;19919;-61
2021/07/12 11:01:21;;;;;;;;;;;;;;;;;;5111085;28;19912;-61
2021/07/12 11:03:50;;;;;;;;;;;;;;;;;;5111359;28;19977;-61
2021/07/12 11:06:16;;;;;;;;;;;;;;;;;;5112726;28;19947;-61
2021/07/12 11:08:42;;;;;;;;;;;;;;;;;;5110224;28;20048;-61
2021/07/12 11:11:08;;;;;;;;;;;;;;;;;;5111411;28;19926;-61
2021/07/12 11:13:34;;;;;;;;;;;;;;;;;;5111426;27;19963;-61
2021/07/12 11:16:00;;;;;;;;;;;;;;;;;;5111639;27;20302;-60
2021/07/12 11:18:26;;;;;;;;;;;;;;;;;;5112056;28;19965;-60
2021/07/12 11:20:52;;;;;;;;;;;;;;;;;;5111010;27;19911;-60
2021/07/12 11:23:18;;;;;;;;;;;;;;;;;;5111114;28;19919;-61
2021/07/12 11:25:43;;;;;;;;;;;;;;;;;;5111688;28;19923;-59
2021/07/12 11:28:09;;;;;;;;;;;;;;;;;;5111508;27;20059;-60
2021/07/12 11:30:35;;;;;;;;;;;;;;;;;;5111280;28;19908;-60
2021/07/12 11:33:01;;;;;;;;;;;;;;;;;;5112397;28;19916;-60
2021/07/12 11:35:27;;;;;;;;;;;;;;;;;;5106430;28;20443;-61
2021/07/12 11:37:53;;;;;;;;;;;;;;;;;;5111107;28;19915;-62
2021/07/12 11:40:19;;;;;;;;;;;;;;;;;;5110185;28;20263;-61
2021/07/12 11:42:45;;;;;;;;;;;;;;;;;;5112146;27;19944;-61
2021/07/12 11:45:11;;;;;;;;;;;;;;;;;;5106731;28;19908;-64
2021/07/12 11:47:38;;;;;;;;;;;;;;;;;;5111697;28;19941;-63
2021/07/12 11:50:04;;;;;;;;;;;;;;;;;;5120331;28;19976;-63
2021/07/12 11:52:30;;;;;;;;;;;;;;;;;;5118122;28;19911;-63
2021/07/12 11:54:56;;;;;;;;;;;;;;;;;;5117403;28;20328;-64
2021/07/12 11:57:22;;;;;;;;;;;;;;;;;;5122936;27;19911;-70
2021/07/12 11:59:48;;;;;;;;;;;;;;;;;;5122371;27;19920;-70
2021/07/12 12:02:14;;;;;;;;;;;;;;;;;;5122734;27;19911;-70
2021/07/12 12:04:40;;;;;;;;;;;;;;;;;;5115870;27;20002;-70
2021/07/12 12:07:06;;;;;;;;;;;;;;;;;;5112006;27;20007;-72
2021/07/12 12:09:31;;;;;;;;;;;;;;;;;;5122505;27;20431;-71
2021/07/12 12:11:57;;;;;;;;;;;;;;;;;;5126540;27;19926;-71
2021/07/12 12:14:23;;;;;;;;;;;;;;;;;;5123478;27;20320;-71
2021/07/12 12:16:49;;;;;;;;;;;;;;;;;;5121302;27;19920;-70
2021/07/12 12:19:15;;;;;;;;;;;;;;;;;;5123208;27;19919;-71
2021/07/12 12:21:41;;;;;;;;;;;;;;;;;;5117269;27;19911;-66
2021/07/12 12:24:07;;;;;;;;;;;;;;;;;;5118867;27;19919;-66
2021/07/12 12:26:33;;;;;;;;;;;;;;;;;;5094176;28;19964;-66
2021/07/12 12:29:00;;;;;;;;;;;;;;;;;;5111721;27;19918;-67
2021/07/12 12:31:29;;;;;;;;;;;;;;;;;;5111078;27;19915;-68
2021/07/12 12:33:55;;;;;;;;;;;;;;;;;;5095364;28;19920;-66
2021/07/12 12:36:21;;;;;;;;;;;;;;;;;;5114677;27;19914;-66
2021/07/12 12:38:47;;;;;;;;;;;;;;;;;;5115911;27;20393;-66
2021/07/12 12:41:13;;;;;;;;;;;;;;;;;;5115428;27;19912;-66
2021/07/12 12:43:38;;;;;;;;;;;;;;;;;;5116132;27;20410;-66
2021/07/12 12:46:04;;;;;;;;;;;;;;;;;;5113631;27;19919;-67
2021/07/12 12:48:30;;;;;;;;;;;;;;;;;;5117829;27;19912;-66
2021/07/12 12:50:56;;;;;;;;;;;;;;;;;;5118978;27;19908;-67
2021/07/12 12:53:22;;;;;;;;;;;;;;;;;;5116455;27;19926;-67
2021/07/12 12:55:48;;;;;;;;;;;;;;;;;;5116563;27;20256;-67
2021/07/12 12:58:14;;;;;;;;;;;;;;;;;;5114551;27;19955;-67
2021/07/12 13:00:40;;;;;;;;;;;;;;;;;;5115957;27;19960;-67
2021/07/12 13:03:05;;;;;;;;;;;;;;;;;;5101365;28;19908;-67
2021/07/12 13:05:31;;;;;;;;;;;;;;;;;;5116025;27;20367;-67
2021/07/12 13:07:58;;;;;;;;;;;;;;;;;;5116233;27;19957;-67
2021/07/12 13:10:25;;;;;;;;;;;;;;;;;;5115449;27;20022;-67
2021/07/12 13:12:51;;;;;;;;;;;;;;;;;;5112536;28;19920;-67
2021/07/12 13:15:17;;;;;;;;;;;;;;;;;;5119217;27;19915;-67
2021/07/12 13:17:43;;;;;;;;;;;;;;;;;;5115671;27;19922;-67
2021/07/12 13:20:08;;;;;;;;;;;;;;;;;;5116011;27;19957;-67
2021/07/12 13:22:34;;;;;;;;;;;;;;;;;;5115936;27;19911;-67
2021/07/12 13:25:00;;;;;;;;;;;;;;;;;;5112842;27;19978;-67
2021/07/12 13:27:26;;;;;;;;;;;;;;;;;;5118104;27;19939;-67
2021/07/12 13:29:52;;;;;;;;;;;;;;;;;;5118628;27;19915;-67
2021/07/12 13:32:18;;;;;;;;;;;;;;;;;;5115445;27;20010;-67
2021/07/12 13:34:44;;;;;;;;;;;;;;;;;;5115169;27;19979;-67
2021/07/12 13:37:10;;;;;;;;;;;;;;;;;;5110488;27;19915;-67
2021/07/12 13:39:35;;;;;;;;;;;;;;;;;;5113439;28;20371;-67
2021/07/12 13:42:01;;;;;;;;;;;;;;;;;;5098427;28;19950;-67
2021/07/12 13:44:27;;;;;;;;;;;;;;;;;;5115480;27;19968;-67
2021/07/12 13:46:53;;;;;;;;;;;;;;;;;;5096657;28;19919;-67
2021/07/12 13:49:19;;;;;;;;;;;;;;;;;;5114561;27;19955;-67
2021/07/12 13:51:45;;;;;;;;;;;;;;;;;;5113221;27;19920;-67
2021/07/12 13:54:11;;;;;;;;;;;;;;;;;;5117631;27;19916;-67
2021/07/12 13:56:37;;;;;;;;;;;;;;;;;;5115434;27;19934;-67
2021/07/12 13:59:02;;;;;;;;;;;;;;;;;;5115159;27;19912;-67
2021/07/12 14:01:28;;;;;;;;;;;;;;;;;;5115051;27;19912;-67
2021/07/12 14:03:54;;;;;;;;;;;;;;;;;;5110847;28;20371;-67
2021/07/12 14:06:20;;;;;;;;;;;;;;;;;;5118742;27;20302;-67
2021/07/12 14:08:46;;;;;;;;;;;;;;;;;;5114989;27;19970;-67
2021/07/12 14:11:12;;;;;;;;;;;;;;;;;;5114790;27;19972;-67
2021/07/12 14:13:38;;;;;;;;;;;;;;;;;;5114448;27;19953;-67
2021/07/12 14:16:05;;;;;;;;;;;;;;;;;;5111800;27;19955;-67
2021/07/12 14:18:31;;;;;;;;;;;;;;;;;;5097417;28;20319;-67
2021/07/12 14:20:57;;;;;;;;;;;;;;;;;;5115168;27;19995;-67
2021/07/12 14:23:24;;;;;;;;;;;;;;;;;;5114859;27;19912;-67
2021/07/12 14:25:50;;;;;;;;;;;;;;;;;;5114854;27;20364;-67
2021/07/12 14:28:16;;;;;;;;;;;;;;;;;;5112917;27;19979;-67
2021/07/12 14:30:42;;;;;;;;;;;;;;;;;;5113476;27;19919;-67
2021/07/12 14:33:08;;;;;;;;;;;;;;;;;;5116084;27;19923;-67
2021/07/12 14:35:33;;;;;;;;;;;;;;;;;;5114656;27;20349;-67
2021/07/12 14:37:59;;;;;;;;;;;;;;;;;;5114447;27;20045;-67
2021/07/12 14:40:25;;;;;;;;;;;;;;;;;;5113928;27;19915;-67
2021/07/12 14:42:54;;;;;;;;;;;;;;;;;;5111064;28;19995;-67
2021/07/12 14:45:21;;;;;;;;;;;;;;;;;;5125042;27;19916;-67
2021/07/12 14:47:47;;;;;;;;;;;;;;;;;;5114613;27;19912;-67
2021/07/12 14:50:13;;;;;;;;;;;;;;;;;;5114324;27;20311;-67
2021/07/12 14:52:39;;;;;;;;;;;;;;;;;;5113905;27;19946;-67
2021/07/12 14:55:05;;;;;;;;;;;;;;;;;;5110452;27;19994;-67
2021/07/12 14:57:31;;;;;;;;;;;;;;;;;;5115346;27;20322;-67
2021/07/12 14:59:57;;;;;;;;;;;;;;;;;;5116353;27;20286;-67
2021/07/12 15:02:22;;;;;;;;;;;;;;;;;;5113640;27;19911;-67
2021/07/12 15:04:48;;;;;;;;;;;;;;;;;;5114040;27;19970;-67
2021/07/12 15:07:14;;;;;;;;;;;;;;;;;;5111957;27;19964;-67
2021/07/12 15:09:40;;;;;;;;;;;;;;;;;;5112977;27;20255;-67
2021/07/12 15:12:06;;;;;;;;;;;;;;;;;;5111734;27;20386;-67
2021/07/12 15:14:32;;;;;;;;;;;;;;;;;;5122127;27;19920;-67
2021/07/12 15:16:58;;;;;;;;;;;;;;;;;;5121368;27;19919;-67
2021/07/12 15:19:24;;;;;;;;;;;;;;;;;;5113580;27;20002;-67
2021/07/12 15:21:51;;;;;;;;;;;;;;;;;;5110180;27;20318;-67
2021/07/12 15:24:17;;;;;;;;;;;;;;;;;;5116959;27;19912;-67
2021/07/12 15:26:43;;;;;;;;;;;;;;;;;;5113524;27;20256;-67
2021/07/12 15:29:08;;;;;;;;;;;;;;;;;;5113437;27;19916;-67
2021/07/12 15:31:34;;;;;;;;;;;;;;;;;;5113249;27;19912;-68
2021/07/12 15:34:00;;;;;;;;;;;;;;;;;;5108842;28;19969;-67
2021/07/12 15:36:26;;;;;;;;;;;;;;;;;;5115693;27;19950;-68
2021/07/12 15:38:52;;;;;;;;;;;;;;;;;;5113776;27;20016;-68
2021/07/12 15:41:18;;;;;;;;;;;;;;;;;;5113396;28;19919;-68
2021/07/12 15:43:44;;;;;;;;;;;;;;;;;;5111297;27;19912;-66
2021/07/12 15:46:10;;;;;;;;;;;;;;;;;;5117939;28;20264;-68
2021/07/12 15:48:36;;;;;;;;;;;;;;;;;;5121248;28;19919;-67
2021/07/12 15:51:02;;;;;;;;;;;;;;;;;;5120023;28;20417;-66
2021/07/12 15:53:28;;;;;;;;;;;;;;;;;;5121990;28;19970;-67
2021/07/12 15:55:54;;;;;;;;;;;;;;;;;;5121775;28;19989;-67
2021/07/12 15:58:20;;;;;;;;;;;;;;;;;;5123435;28;19999;-67
2021/07/12 16:00:45;;;;;;;;;;;;;;;;;;5111631;28;20500;-66
2021/07/12 16:03:11;;;;;;;;;;;;;;;;;;5115697;28;19908;-67
2021/07/12 16:05:37;;;;;;;;;;;;;;;;;;5112441;28;19916;-67
2021/07/12 16:08:04;;;;;;;;;;;;;;;;;;5112515;28;20006;-67
2021/07/12 16:10:30;;;;;;;;;;;;;;;;;;5126262;28;19924;-66
2021/07/12 16:12:58;;;;;;;;;;;;;;;;;;5121044;28;19920;-71
2021/07/12 16:15:26;;;;;;;;;;;;;;;;;;5126998;28;19918;-69
2021/07/12 16:17:52;;;;;;;;;;;;;;;;;;5123848;28;19918;-68
2021/07/12 16:20:18;;;;;;;;;;;;;;;;;;5120710;28;19911;-68
2021/07/12 16:22:43;;;;;;;;;;;;;;;;;;5114257;28;19918;-68
2021/07/12 16:25:09;;;;;;;;;;;;;;;;;;5120585;28;19911;-66
2021/07/12 16:27:35;;;;;;;;;;;;;;;;;;5123105;28;19907;-68
2021/07/12 16:30:01;;;;;;;;;;;;;;;;;;5123467;28;19998;-67
2021/07/12 16:32:27;;;;;;;;;;;;;;;;;;5112309;28;19911;-66
2021/07/12 16:34:53;;;;;;;;;;;;;;;;;;5119886;28;19919;-66
2021/07/12 16:37:21;;;;;;;;;;;;;;;;;;5123518;28;19919;-68